Time;durP1;ratioP1;P1;durP2;ratioP2;P2;SDS_P1;SDS_P2;PMS_P1;PMS_P2;Temp;Humidity;BMP_temperature;BMP_pressure;BME280_temperature;BME280_humidity;BME280_pressure;Samples;Min_cycle;Max_cycle;Signal;HPM_P1;HPM_P2
2022/01/06 00:01:07;;;;;;;6.40;1.80;;;3.70;97.30;;;;;;5060045;28;20196;-81
2022/01/06 00:03:34;;;;;;;10.00;1.87;;;3.70;97.30;;;;;;5059933;28;20172;-81
2022/01/06 00:06:04;;;;;;;3.30;1.40;;;3.70;97.30;;;;;;5058684;28;20586;-81
2022/01/06 00:08:30;;;;;;;2.73;1.73;;;3.70;97.30;;;;;;5058649;28;20419;-81
2022/01/06 00:10:55;;;;;;;2.27;1.33;;;3.70;97.30;;;;;;5060460;28;20426;-80
2022/01/06 00:13:32;;;;;;;3.07;1.10;;;3.60;97.30;;;;;;5060374;28;20172;-81
2022/01/06 00:16:16;;;;;;;5.43;1.80;;;3.60;97.30;;;;;;5060350;28;20144;-82
2022/01/06 00:24:24;;;;;;;5.53;1.80;;;3.70;97.30;;;;;;5061255;28;20414;-81
2022/01/06 00:26:50;;;;;;;5.57;1.40;;;3.70;97.30;;;;;;5058833;28;20446;-82
2022/01/06 00:29:17;;;;;;;9.63;2.10;;;3.70;97.30;;;;;;5060069;28;20946;-81
2022/01/06 00:31:43;;;;;;;5.80;1.70;;;3.80;97.30;;;;;;5058966;28;20940;-80
2022/01/06 00:34:10;;;;;;;4.03;1.53;;;3.80;97.30;;;;;;5059651;28;20413;-80
2022/01/06 00:36:42;;;;;;;3.17;1.53;;;3.80;97.30;;;;;;5059842;28;20540;-81
2022/01/06 00:39:09;;;;;;;7.23;1.33;;;3.90;97.30;;;;;;5057654;28;20414;-81
2022/01/06 00:41:36;;;;;;;1.60;1.20;;;3.90;97.30;;;;;;5057110;28;20438;-82
2022/01/06 00:44:04;;;;;;;1.60;1.10;;;3.90;97.30;;;;;;5056776;28;20500;-81
2022/01/06 00:46:30;;;;;;;6.23;1.80;;;3.80;97.30;;;;;;5057313;28;20426;-81
2022/01/06 00:48:56;;;;;;;1.53;1.40;;;3.80;97.30;;;;;;5057824;28;20473;-82
2022/01/06 00:51:22;;;;;;;4.03;1.27;;;3.80;97.30;;;;;;5060355;28;20442;-81
2022/01/06 00:53:47;;;;;;;1.03;1.00;;;3.70;97.30;;;;;;5060359;28;20182;-82
2022/01/06 00:56:13;;;;;;;1.90;1.10;;;3.70;97.30;;;;;;5060014;28;20919;-81
2022/01/06 00:58:39;;;;;;;1.23;1.07;;;3.70;97.30;;;;;;5061453;28;20676;-81
2022/01/06 01:01:04;;;;;;;7.07;1.33;;;3.70;97.30;;;;;;5061537;28;20191;-81
2022/01/06 01:03:30;;;;;;;3.63;1.10;;;3.70;97.30;;;;;;5062000;28;20195;-81
2022/01/06 01:05:57;;;;;;;5.33;1.30;;;3.70;97.30;;;;;;5063341;28;20210;-81
2022/01/06 01:08:24;;;;;;;3.83;1.27;;;3.70;97.30;;;;;;5062688;28;20191;-81
2022/01/06 01:10:52;;;;;;;5.03;1.60;;;3.70;97.30;;;;;;5063519;28;20495;-81
2022/01/06 01:13:27;;;;;;;11.63;1.70;;;3.70;97.30;;;;;;5063718;28;20813;-81
2022/01/06 01:15:55;;;;;;;6.93;1.30;;;3.60;97.30;;;;;;5062727;28;20903;-82
2022/01/06 01:18:22;;;;;;;2.40;1.40;;;3.60;97.30;;;;;;5063011;28;20480;-81
2022/01/06 01:20:49;;;;;;;4.60;1.43;;;3.60;97.30;;;;;;5063338;28;20776;-81
2022/01/06 01:23:16;;;;;;;3.90;1.60;;;3.50;97.30;;;;;;5063352;28;20454;-81
2022/01/06 01:25:42;;;;;;;5.00;1.80;;;3.50;97.30;;;;;;5063734;28;20438;-81
2022/01/06 01:28:10;;;;;;;2.33;1.40;;;3.50;97.30;;;;;;5062902;28;20429;-81
2022/01/06 01:30:51;;;;;;;3.63;1.07;;;3.40;97.30;;;;;;5062919;28;20441;-81
2022/01/06 01:33:17;;;;;;;2.40;1.53;;;3.40;97.30;;;;;;5062737;28;20936;-81
2022/01/06 01:35:43;;;;;;;6.17;1.60;;;3.40;97.30;;;;;;5063279;28;20429;-81
2022/01/06 01:38:09;;;;;;;5.87;1.50;;;3.40;97.30;;;;;;5062612;28;20215;-81
2022/01/06 01:40:34;;;;;;;2.43;1.20;;;3.40;97.30;;;;;;5063822;28;20259;-81
2022/01/06 01:43:00;;;;;;;2.93;1.50;;;3.40;97.30;;;;;;5064321;28;20202;-82
2022/01/06 01:45:30;;;;;;;3.50;1.57;;;3.30;97.30;;;;;;5064906;28;20176;-82
2022/01/06 01:47:59;;;;;;;2.10;1.23;;;3.30;97.30;;;;;;5064672;28;20180;-82
2022/01/06 01:50:25;;;;;;;4.13;1.10;;;3.30;97.30;;;;;;5063880;28;20959;-82
2022/01/06 01:52:53;;;;;;;4.10;1.33;;;3.30;97.30;;;;;;5063572;28;20429;-82
2022/01/06 01:55:25;;;;;;;8.73;1.47;;;3.30;97.30;;;;;;5063896;28;20199;-82
2022/01/06 01:57:52;;;;;;;5.33;1.73;;;3.30;97.30;;;;;;5064291;28;20500;-82
2022/01/06 02:00:19;;;;;;;6.30;1.53;;;3.30;97.30;;;;;;5063462;28;20453;-82
2022/01/06 02:02:46;;;;;;;5.00;1.50;;;3.30;97.30;;;;;;5063945;28;20414;-83
2022/01/06 02:05:11;;;;;;;4.67;1.63;;;3.40;97.30;;;;;;5063929;28;20460;-82
2022/01/06 02:07:39;;;;;;;8.43;1.93;;;3.40;97.30;;;;;;5063914;28;20470;-81
2022/01/06 02:10:05;;;;;;;2.30;1.47;;;3.40;97.30;;;;;;5063006;28;20180;-80
2022/01/06 02:12:36;;;;;;;4.43;1.50;;;3.40;97.30;;;;;;5062341;28;20469;-81
2022/01/06 02:15:03;;;;;;;8.50;3.13;;;3.40;97.30;;;;;;5062504;28;20418;-80
2022/01/06 02:17:28;;;;;;;7.47;1.60;;;3.40;97.30;;;;;;5062260;28;20450;-81
2022/01/06 02:19:55;;;;;;;8.03;1.70;;;3.40;97.30;;;;;;5061831;28;20447;-81
2022/01/06 02:22:21;;;;;;;5.00;1.50;;;3.40;97.30;;;;;;5061785;28;20191;-81
2022/01/06 02:24:47;;;;;;;7.30;1.57;;;3.40;97.30;;;;;;5063581;28;20553;-81
2022/01/06 02:27:13;;;;;;;6.13;1.30;;;3.40;97.30;;;;;;5062205;28;20450;-81
2022/01/06 02:29:39;;;;;;;8.37;1.80;;;3.40;97.30;;;;;;5061068;28;20848;-81
2022/01/06 02:32:14;;;;;;;6.73;1.43;;;3.40;97.30;;;;;;5060581;28;20207;-80
2022/01/06 02:34:40;;;;;;;9.37;2.07;;;3.40;97.30;;;;;;5060308;28;20181;-80
2022/01/06 02:37:05;;;;;;;7.10;4.33;;;3.40;97.30;;;;;;5059444;28;20446;-80
2022/01/06 02:39:31;;;;;;;4.73;1.80;;;3.40;97.30;;;;;;5058667;28;20175;-80
2022/01/06 02:41:57;;;;;;;7.30;2.17;;;3.40;97.30;;;;;;5059128;28;20196;-80
2022/01/06 02:44:26;;;;;;;6.50;1.80;;;3.40;97.30;;;;;;5057640;28;20313;-83
2022/01/06 02:46:53;;;;;;;8.70;1.77;;;3.40;97.30;;;;;;5057074;28;20548;-82
2022/01/06 02:49:19;;;;;;;7.70;1.73;;;3.40;97.30;;;;;;5056498;28;20458;-82
2022/01/06 02:51:45;;;;;;;5.47;2.00;;;3.40;97.30;;;;;;5057342;28;20438;-82
2022/01/06 02:54:11;;;;;;;4.90;1.90;;;3.30;97.30;;;;;;5057014;28;20649;-82
2022/01/06 02:56:38;;;;;;;13.43;2.33;;;3.30;97.30;;;;;;5058847;28;20963;-81
2022/01/06 02:59:04;;;;;;;9.63;1.90;;;3.30;97.30;;;;;;5059798;28;20422;-81
2022/01/06 03:01:29;;;;;;;9.07;2.53;;;3.20;97.30;;;;;;5059389;28;20434;-82
2022/01/06 03:03:55;;;;;;;7.43;2.33;;;3.20;97.30;;;;;;5059187;28;20172;-81
2022/01/06 03:06:21;;;;;;;8.63;2.30;;;3.30;97.30;;;;;;5059534;28;20176;-81
2022/01/06 03:08:46;;;;;;;7.93;2.30;;;3.20;97.30;;;;;;5059202;28;20176;-81
2022/01/06 03:11:12;;;;;;;10.47;2.10;;;3.30;97.30;;;;;;5058582;28;20202;-81
2022/01/06 03:13:37;;;;;;;6.57;1.87;;;3.30;97.30;;;;;;5057954;28;20648;-81
2022/01/06 03:16:04;;;;;;;5.33;1.93;;;3.30;97.30;;;;;;5059030;28;20188;-82
2022/01/06 03:18:29;;;;;;;7.93;2.30;;;3.30;97.30;;;;;;5057821;28;20271;-81
2022/01/06 03:20:55;;;;;;;8.33;2.53;;;3.30;97.30;;;;;;5059255;28;20481;-81
2022/01/06 03:23:21;;;;;;;6.43;2.00;;;3.40;97.30;;;;;;5058115;28;20196;-81
2022/01/06 03:25:46;;;;;;;9.60;2.30;;;3.40;97.30;;;;;;5058142;28;20291;-81
2022/01/06 03:28:12;;;;;;;13.40;2.97;;;3.40;97.30;;;;;;5056010;28;20549;-80
2022/01/06 03:30:38;;;;;;;6.63;2.30;;;3.30;97.30;;;;;;5056525;28;20199;-82
2022/01/06 03:33:04;;;;;;;4.03;2.17;;;3.30;97.30;;;;;;5056962;28;20242;-81
2022/01/06 03:35:29;;;;;;;4.50;2.60;;;3.10;97.30;;;;;;5056136;28;20973;-82
2022/01/06 03:37:55;;;;;;;6.83;2.63;;;3.00;97.30;;;;;;5055132;28;20195;-82
2022/01/06 03:40:21;;;;;;;6.23;2.10;;;2.90;97.30;;;;;;5054767;28;20180;-82
2022/01/06 03:42:47;;;;;;;1.70;1.60;;;2.90;97.30;;;;;;5054346;28;20180;-82
2022/01/06 03:45:16;;;;;;;9.23;1.90;;;2.80;97.30;;;;;;5054896;28;20186;-83
2022/01/06 03:47:42;;;;;;;2.53;1.33;;;2.80;97.30;;;;;;5055102;28;20420;-82
2022/01/06 03:50:09;;;;;;;4.10;1.83;;;2.70;97.30;;;;;;5054949;28;20503;-82
2022/01/06 03:52:35;;;;;;;2.07;1.47;;;2.70;97.30;;;;;;5053953;28;20442;-82
2022/01/06 03:55:03;;;;;;;1.60;1.50;;;2.60;97.30;;;;;;5055052;28;20446;-82
2022/01/06 03:57:29;;;;;;;2.20;1.43;;;2.50;97.30;;;;;;5054325;28;20934;-82
2022/01/06 03:59:54;;;;;;;3.33;1.70;;;2.40;97.30;;;;;;5055633;28;20418;-82
2022/01/06 04:02:21;;;;;;;6.40;2.07;;;2.40;97.30;;;;;;5057516;28;20222;-82
2022/01/06 04:04:46;;;;;;;2.80;2.07;;;2.30;97.30;;;;;;5056454;28;20627;-81
2022/01/06 04:07:12;;;;;;;5.53;1.80;;;2.30;97.30;;;;;;5055177;28;20427;-82
2022/01/06 04:09:37;;;;;;;5.50;2.07;;;2.20;97.30;;;;;;5055664;28;20679;-82
2022/01/06 04:12:03;;;;;;;5.13;2.10;;;2.20;97.30;;;;;;5056390;28;20200;-82
2022/01/06 04:14:29;;;;;;;2.30;1.80;;;2.10;97.30;;;;;;5055123;28;20179;-81
2022/01/06 04:16:59;;;;;;;2.77;1.60;;;2.10;97.30;;;;;;5056086;28;20519;-81
2022/01/06 04:19:24;;;;;;;2.83;1.67;;;2.10;97.30;;;;;;5056833;28;20186;-82
2022/01/06 04:21:50;;;;;;;2.90;1.70;;;2.00;97.30;;;;;;5055935;28;21043;-81
2022/01/06 04:24:16;;;;;;;3.87;1.90;;;2.00;97.30;;;;;;5055094;28;20279;-81
2022/01/06 04:26:41;;;;;;;4.43;1.60;;;1.90;97.30;;;;;;5055038;28;20180;-84
2022/01/06 04:29:07;;;;;;;2.00;1.40;;;1.90;97.30;;;;;;5055400;28;20180;-83
2022/01/06 04:31:33;;;;;;;3.57;1.70;;;1.80;97.30;;;;;;5055399;28;20578;-82
2022/01/06 04:33:58;;;;;;;2.97;1.60;;;1.70;97.30;;;;;;5055717;28;20754;-83
2022/01/06 04:36:24;;;;;;;2.53;1.87;;;1.70;97.30;;;;;;5056174;28;20193;-82
2022/01/06 04:38:49;;;;;;;3.70;1.73;;;1.60;97.30;;;;;;5056536;28;20172;-83
2022/01/06 04:41:15;;;;;;;2.30;1.50;;;1.50;97.30;;;;;;5055951;28;20195;-82
2022/01/06 04:43:40;;;;;;;1.57;1.50;;;1.50;97.30;;;;;;5057022;28;20170;-83
2022/01/06 04:46:06;;;;;;;12.07;2.20;;;1.40;97.30;;;;;;5057335;28;20172;-82
2022/01/06 04:48:34;;;;;;;3.10;2.03;;;1.40;97.30;;;;;;5056977;28;20274;-82
2022/01/06 04:51:00;;;;;;;4.07;1.93;;;1.30;97.30;;;;;;5056522;28;20290;-82
2022/01/06 04:53:26;;;;;;;5.73;1.80;;;1.30;97.30;;;;;;5057194;28;20446;-84
2022/01/06 04:55:51;;;;;;;7.10;1.80;;;1.20;97.30;;;;;;5056351;28;20183;-83
2022/01/06 04:58:17;;;;;;;1.53;1.50;;;1.20;97.30;;;;;;5055734;28;20602;-83
2022/01/06 05:00:43;;;;;;;4.77;1.87;;;1.20;97.30;;;;;;5055666;28;20457;-82
2022/01/06 05:03:08;;;;;;;5.47;1.90;;;1.10;97.30;;;;;;5055211;28;20282;-81
2022/01/06 05:05:34;;;;;;;1.93;1.67;;;1.10;97.30;;;;;;5054782;28;20180;-81
2022/01/06 05:08:00;;;;;;;3.10;1.73;;;1.00;97.30;;;;;;5057537;28;20186;-80
2022/01/06 05:10:26;;;;;;;2.93;1.77;;;1.00;97.30;;;;;;5057406;28;20186;-81
2022/01/06 05:12:51;;;;;;;7.13;2.10;;;1.00;97.30;;;;;;5055395;28;20430;-83
2022/01/06 05:15:17;;;;;;;7.30;2.27;;;1.00;97.30;;;;;;5055683;28;20225;-81
2022/01/06 05:17:43;;;;;;;4.37;1.90;;;0.90;97.30;;;;;;5057266;28;20279;-81
2022/01/06 05:20:09;;;;;;;5.50;1.47;;;0.90;97.30;;;;;;5058248;28;20168;-80
2022/01/06 05:22:41;;;;;;;2.17;1.67;;;0.90;97.30;;;;;;5056281;28;20462;-81
2022/01/06 05:25:07;;;;;;;2.13;1.43;;;0.80;97.30;;;;;;5059072;28;20805;-80
2022/01/06 05:27:33;;;;;;;2.10;1.63;;;0.80;97.30;;;;;;5059427;28;20428;-80
2022/01/06 05:29:58;;;;;;;2.07;1.47;;;0.80;97.30;;;;;;5058720;28;20414;-80
2022/01/06 05:32:24;;;;;;;1.63;1.20;;;0.80;97.30;;;;;;5059549;28;20207;-81
2022/01/06 05:34:50;;;;;;;4.17;1.50;;;0.80;97.30;;;;;;5055799;28;20180;-81
2022/01/06 05:37:15;;;;;;;2.20;1.77;;;0.70;97.30;;;;;;5059956;28;20223;-80
2022/01/06 05:39:41;;;;;;;2.00;1.57;;;0.70;97.30;;;;;;5061755;28;20198;-80
2022/01/06 05:42:07;;;;;;;1.70;1.57;;;0.70;97.30;;;;;;5062461;28;20195;-80
2022/01/06 05:44:34;;;;;;;7.83;1.90;;;0.70;97.30;;;;;;5058663;28;20226;-81
2022/01/06 05:46:59;;;;;;;7.73;1.93;;;0.70;97.30;;;;;;5060912;28;20433;-82
2022/01/06 05:49:25;;;;;;;3.93;1.87;;;0.70;97.30;;;;;;5059924;28;21025;-82
2022/01/06 05:51:51;;;;;;;5.33;1.90;;;0.60;97.30;;;;;;5059714;28;20203;-82
2022/01/06 05:54:16;;;;;;;2.90;1.23;;;0.70;97.30;;;;;;5061015;28;20309;-82
2022/01/06 05:56:43;;;;;;;2.60;1.73;;;0.60;97.30;;;;;;5059507;28;20211;-82
2022/01/06 05:59:08;;;;;;;2.40;1.80;;;0.60;97.30;;;;;;5060472;28;20626;-82
2022/01/06 06:01:34;;;;;;;2.53;1.50;;;0.60;97.30;;;;;;5060073;28;20441;-82
2022/01/06 06:03:59;;;;;;;5.70;2.07;;;0.60;97.30;;;;;;5060925;28;20161;-82
2022/01/06 06:06:25;;;;;;;6.90;1.80;;;0.60;97.30;;;;;;5061174;28;20243;-81
2022/01/06 06:08:51;;;;;;;2.53;1.70;;;0.60;97.30;;;;;;5060872;28;20187;-82
2022/01/06 06:11:16;;;;;;;3.20;1.73;;;0.50;97.30;;;;;;5060789;28;20203;-81
2022/01/06 06:13:42;;;;;;;5.13;1.87;;;0.50;97.30;;;;;;5059957;28;20176;-82
2022/01/06 06:16:07;;;;;;;9.07;1.70;;;0.50;97.30;;;;;;5061278;28;20305;-80
2022/01/06 06:18:33;;;;;;;4.13;1.63;;;0.50;97.30;;;;;;5060961;28;20195;-80
2022/01/06 06:20:59;;;;;;;2.00;1.80;;;0.50;97.30;;;;;;5061374;28;20200;-80
2022/01/06 06:23:24;;;;;;;1.87;1.57;;;0.40;97.30;;;;;;5061056;28;20184;-80
2022/01/06 06:25:50;;;;;;;3.03;1.50;;;0.40;97.30;;;;;;5062001;28;20192;-79
2022/01/06 06:28:15;;;;;;;3.47;1.70;;;0.50;97.30;;;;;;5061433;28;20183;-80
2022/01/06 06:30:41;;;;;;;7.43;1.90;;;0.50;97.30;;;;;;5061502;28;20199;-80
2022/01/06 06:33:06;;;;;;;1.83;1.30;;;0.50;97.30;;;;;;5063193;28;20183;-80
2022/01/06 06:35:32;;;;;;;6.10;2.37;;;0.50;97.30;;;;;;5063131;28;20187;-80
2022/01/06 06:37:58;;;;;;;3.07;1.53;;;0.50;97.30;;;;;;5064366;28;20274;-80
2022/01/06 06:40:24;;;;;;;7.80;2.10;;;0.50;97.30;;;;;;5063417;28;20239;-81
2022/01/06 06:42:51;;;;;;;2.37;2.00;;;0.50;97.30;;;;;;5062999;28;20222;-81
2022/01/06 06:45:17;;;;;;;4.30;2.10;;;0.50;97.30;;;;;;5061732;28;20184;-81
2022/01/06 06:47:43;;;;;;;3.33;2.20;;;0.50;97.30;;;;;;5059873;28;20479;-81
2022/01/06 06:50:09;;;;;;;3.30;2.07;;;0.50;97.30;;;;;;5058812;28;20493;-81
2022/01/06 06:52:35;;;;;;;3.80;2.10;;;0.50;97.30;;;;;;5059506;28;20523;-80
2022/01/06 06:55:00;;;;;;;11.33;2.50;;;0.50;97.30;;;;;;5058769;28;20452;-81
2022/01/06 06:57:26;;;;;;;7.20;2.33;;;0.40;97.30;;;;;;5059016;28;20207;-81
2022/01/06 06:59:52;;;;;;;5.53;2.00;;;0.40;97.30;;;;;;5061006;28;20178;-82
2022/01/06 07:02:17;;;;;;;3.23;2.03;;;0.40;97.30;;;;;;5059627;28;20195;-81
2022/01/06 07:04:43;;;;;;;5.23;2.50;;;0.40;97.30;;;;;;5061154;28;20205;-81
2022/01/06 07:07:09;;;;;;;6.40;2.60;;;0.40;97.30;;;;;;5058966;28;20610;-82
2022/01/06 07:09:34;;;;;;;4.33;2.90;;;0.30;97.30;;;;;;5058570;28;20180;-82
2022/01/06 07:12:00;;;;;;;6.50;2.93;;;0.30;97.30;;;;;;5058893;28;20222;-81
2022/01/06 07:14:25;;;;;;;5.87;2.80;;;0.30;97.30;;;;;;5058769;28;20176;-82
2022/01/06 07:16:51;;;;;;;1.93;1.63;;;0.30;97.30;;;;;;5059567;28;20241;-81
2022/01/06 07:19:16;;;;;;;4.70;1.90;;;0.30;97.30;;;;;;5059925;28;20179;-81
2022/01/06 07:21:42;;;;;;;7.50;1.83;;;0.20;97.30;;;;;;5059271;28;20207;-81
2022/01/06 07:24:08;;;;;;;3.43;2.03;;;0.20;97.30;;;;;;5059972;28;20179;-81
2022/01/06 07:26:33;;;;;;;10.63;2.13;;;0.20;97.30;;;;;;5060041;28;20243;-81
2022/01/06 07:28:59;;;;;;;3.43;2.70;;;0.10;97.30;;;;;;5060990;28;20548;-81
2022/01/06 07:31:25;;;;;;;5.10;2.00;;;0.10;97.30;;;;;;5059627;28;20214;-82
2022/01/06 07:33:50;;;;;;;1.80;1.70;;;0.10;97.30;;;;;;5060561;28;20179;-81
2022/01/06 07:36:16;;;;;;;4.57;2.47;;;0.00;97.30;;;;;;5059218;28;20262;-81
2022/01/06 07:38:41;;;;;;;6.43;1.80;;;0.00;97.30;;;;;;5058887;28;20208;-81
2022/01/06 07:41:07;;;;;;;2.50;2.13;;;0.00;97.30;;;;;;5059433;28;20614;-81
2022/01/06 07:43:33;;;;;;;3.23;2.03;;;0.10;97.30;;;;;;5058369;28;20199;-81
2022/01/06 07:45:59;;;;;;;5.40;2.30;;;0.10;97.30;;;;;;5060358;28;20183;-81
2022/01/06 07:48:29;;;;;;;1.73;1.60;;;0.10;97.30;;;;;;5060062;28;20186;-81
2022/01/06 07:50:55;;;;;;;4.53;1.80;;;0.10;97.30;;;;;;5060347;28;20207;-81
2022/01/06 07:53:20;;;;;;;3.20;1.67;;;0.10;97.30;;;;;;5059408;28;20479;-80
2022/01/06 07:55:46;;;;;;;5.00;1.80;;;0.20;97.30;;;;;;5059729;28;20186;-80
2022/01/06 07:58:12;;;;;;;3.10;1.60;;;0.30;97.30;;;;;;5059140;28;20203;-80
2022/01/06 08:00:37;;;;;;;4.00;2.70;;;0.30;97.30;;;;;;5058888;28;20192;-81
2022/01/06 08:03:03;;;;;;;6.07;2.40;;;0.40;97.30;;;;;;5058902;28;20168;-81
2022/01/06 08:05:29;;;;;;;6.20;2.60;;;0.40;97.30;;;;;;5059725;28;20175;-79
2022/01/06 08:07:55;;;;;;;5.60;2.17;;;0.50;97.30;;;;;;5060083;28;20184;-81
2022/01/06 08:10:21;;;;;;;3.00;2.03;;;0.50;97.30;;;;;;5059901;28;20176;-82
2022/01/06 08:12:47;;;;;;;6.17;1.80;;;0.50;97.30;;;;;;5059046;28;20414;-81
2022/01/06 08:15:14;;;;;;;4.80;2.13;;;0.50;97.30;;;;;;5059224;28;20488;-81
2022/01/06 08:17:40;;;;;;;3.30;2.20;;;0.50;97.30;;;;;;5058856;28;20630;-81
2022/01/06 08:20:09;;;;;;;7.00;2.20;;;0.50;97.30;;;;;;5059903;28;20435;-81
2022/01/06 08:22:35;;;;;;;3.90;2.10;;;0.50;97.30;;;;;;5060051;28;20433;-79
2022/01/06 08:25:02;;;;;;;4.50;2.00;;;0.60;97.30;;;;;;5058385;28;20418;-81
2022/01/06 08:27:27;;;;;;;7.60;1.60;;;0.60;97.30;;;;;;5059757;28;20411;-81
2022/01/06 08:29:53;;;;;;;4.70;1.97;;;0.70;97.30;;;;;;5059180;28;20418;-81
2022/01/06 08:32:19;;;;;;;7.83;2.30;;;0.70;97.30;;;;;;5060579;28;20196;-81
2022/01/06 08:34:45;;;;;;;6.63;2.13;;;0.80;97.30;;;;;;5059970;28;20176;-80
2022/01/06 08:37:11;;;;;;;4.23;1.83;;;0.80;97.30;;;;;;5061325;28;20462;-81
2022/01/06 08:39:36;;;;;;;3.53;1.73;;;0.80;97.30;;;;;;5064086;28;20172;-81
2022/01/06 08:42:02;;;;;;;2.63;1.33;;;0.90;97.30;;;;;;5062974;28;20199;-80
2022/01/06 08:44:28;;;;;;;4.70;1.90;;;0.90;97.30;;;;;;5062519;28;20270;-80
2022/01/06 08:46:55;;;;;;;5.23;1.70;;;1.00;97.30;;;;;;5060373;28;20801;-81
2022/01/06 08:49:21;;;;;;;4.50;1.83;;;1.00;97.30;;;;;;5058408;28;20223;-81
2022/01/06 08:51:47;;;;;;;4.50;1.93;;;1.10;97.30;;;;;;5058242;28;20445;-82
2022/01/06 08:54:13;;;;;;;9.03;2.03;;;1.10;97.30;;;;;;5058485;28;20186;-81
2022/01/06 08:56:38;;;;;;;6.40;2.20;;;1.20;97.30;;;;;;5059276;28;20183;-81
2022/01/06 08:59:04;;;;;;;4.50;1.97;;;1.30;97.30;;;;;;5058497;28;20210;-81
2022/01/06 09:01:31;;;;;;;6.27;1.50;;;1.30;97.30;;;;;;5059135;28;20260;-81
2022/01/06 09:03:57;;;;;;;2.97;1.90;;;1.30;97.30;;;;;;5058337;28;20402;-80
2022/01/06 09:06:23;;;;;;;3.33;1.87;;;1.40;97.30;;;;;;5059518;28;20799;-79
2022/01/06 09:08:49;;;;;;;4.83;1.80;;;1.40;97.30;;;;;;5058302;28;20430;-80
2022/01/06 09:11:15;;;;;;;4.70;2.00;;;1.50;97.30;;;;;;5059757;28;20281;-79
2022/01/06 09:13:41;;;;;;;3.83;2.10;;;1.50;97.30;;;;;;5062372;28;20483;-79
2022/01/06 09:16:08;;;;;;;4.10;2.43;;;1.60;97.30;;;;;;5063315;28;20422;-80
2022/01/06 09:18:35;;;;;;;3.53;2.03;;;1.60;97.30;;;;;;5065545;28;20462;-81
2022/01/06 09:21:01;;;;;;;1.67;1.57;;;1.60;97.30;;;;;;5064529;28;20433;-81
2022/01/06 09:23:26;;;;;;;8.60;2.00;;;1.70;97.30;;;;;;5065116;28;20398;-81
2022/01/06 09:25:52;;;;;;;7.63;1.77;;;1.80;97.30;;;;;;5065559;28;20179;-81
2022/01/06 09:28:18;;;;;;;8.73;1.70;;;1.80;97.30;;;;;;5064287;28;20188;-80
2022/01/06 09:30:43;;;;;;;2.80;2.37;;;1.90;97.30;;;;;;5067890;28;20207;-81
2022/01/06 09:33:09;;;;;;;2.33;1.63;;;1.90;97.30;;;;;;5065744;28;20216;-81
2022/01/06 09:35:34;;;;;;;2.93;1.80;;;2.00;97.30;;;;;;5065918;28;20183;-81
2022/01/06 09:38:00;;;;;;;3.03;1.70;;;2.00;97.30;;;;;;5068693;28;20195;-81
2022/01/06 09:40:26;;;;;;;2.17;1.70;;;2.00;97.30;;;;;;5066760;28;20180;-81
2022/01/06 09:42:53;;;;;;;2.17;1.40;;;2.10;97.30;;;;;;5064986;28;20183;-81
2022/01/06 09:45:20;;;;;;;5.90;1.63;;;2.20;97.30;;;;;;5063725;28;20180;-81
2022/01/06 09:47:46;;;;;;;5.23;1.80;;;2.20;97.30;;;;;;5063280;28;20437;-84
2022/01/06 09:50:13;;;;;;;12.40;2.37;;;2.30;97.30;;;;;;5061393;28;20474;-83
2022/01/06 09:52:38;;;;;;;2.27;1.30;;;2.40;97.30;;;;;;5062834;28;20946;-84
2022/01/06 09:55:05;;;;;;;5.67;2.17;;;2.40;97.30;;;;;;5061686;28;20433;-83
2022/01/06 09:57:31;;;;;;;10.90;1.70;;;2.50;97.30;;;;;;5061706;28;20727;-81
2022/01/06 09:59:56;;;;;;;2.50;1.60;;;2.50;97.30;;;;;;5059511;28;20482;-84
2022/01/06 10:02:32;;;;;;;2.23;1.70;;;2.50;97.30;;;;;;5056932;28;20195;-81
2022/01/06 10:04:59;;;;;;;3.57;1.83;;;2.60;97.30;;;;;;5058735;28;20159;-81
2022/01/06 10:07:25;;;;;;;2.57;1.43;;;2.60;97.30;;;;;;5060243;28;20410;-81
2022/01/06 10:09:50;;;;;;;1.70;1.50;;;2.70;97.30;;;;;;5057502;28;20410;-82
2022/01/06 10:12:16;;;;;;;3.90;1.73;;;2.70;97.30;;;;;;5057888;28;20203;-81
2022/01/06 10:14:45;;;;;;;3.90;1.80;;;2.70;97.30;;;;;;5059360;28;20180;-82
2022/01/06 10:17:16;;;;;;;6.90;2.70;;;2.70;97.30;;;;;;5059361;28;20854;-82
2022/01/06 10:19:44;;;;;;;2.87;1.50;;;2.80;97.30;;;;;;5056942;28;20471;-82
2022/01/06 10:22:18;;;;;;;3.00;1.33;;;2.80;97.30;;;;;;5056352;28;20453;-82
2022/01/06 10:24:46;;;;;;;3.00;1.70;;;2.90;97.30;;;;;;5058322;28;20409;-82
2022/01/06 10:27:19;;;;;;;2.67;1.50;;;3.00;97.30;;;;;;5057226;28;20433;-82
2022/01/06 10:29:48;;;;;;;6.80;1.80;;;3.10;97.30;;;;;;5057764;28;20935;-81
2022/01/06 10:32:18;;;;;;;5.07;1.60;;;3.20;97.30;;;;;;5057511;28;20929;-81
2022/01/06 10:34:45;;;;;;;4.97;1.77;;;3.30;97.30;;;;;;5056488;28;20414;-83
2022/01/06 10:37:24;;;;;;;4.33;1.87;;;3.40;97.30;;;;;;5056602;28;21035;-82
2022/01/06 10:39:58;;;;;;;3.73;1.40;;;3.50;97.30;;;;;;5058866;28;20497;-81
2022/01/06 10:42:26;;;;;;;4.07;1.90;;;3.50;97.30;;;;;;5057772;28;20831;-82
2022/01/06 10:45:04;;;;;;;1.60;1.50;;;3.60;97.30;;;;;;5057906;28;20908;-82
2022/01/06 10:47:35;;;;;;;2.80;1.87;;;3.60;97.30;;;;;;5056851;28;20428;-82
2022/01/06 10:50:19;;;;;;;2.87;1.73;;;3.70;97.30;;;;;;5056639;28;20474;-82
2022/01/06 10:52:46;;;;;;;3.23;1.50;;;3.90;97.30;;;;;;5057205;28;20407;-82
2022/01/06 10:55:19;;;;;;;4.53;1.73;;;3.90;97.30;;;;;;5056051;28;20959;-82
2022/01/06 10:57:51;;;;;;;2.83;1.60;;;4.00;97.30;;;;;;5055774;28;20521;-82
2022/01/06 11:00:18;;;;;;;2.37;1.47;;;4.10;97.30;;;;;;5057278;28;20784;-82
2022/01/06 11:02:44;;;;;;;2.00;1.53;;;4.30;97.30;;;;;;5056089;28;20455;-82
2022/01/06 11:05:09;;;;;;;6.80;2.03;;;4.40;97.30;;;;;;5055237;28;20750;-83
2022/01/06 11:07:35;;;;;;;1.83;1.13;;;4.50;97.30;;;;;;5054165;28;20222;-83
2022/01/06 11:10:05;;;;;;;4.57;1.80;;;4.50;97.30;;;;;;5058260;28;20179;-82
2022/01/06 11:12:33;;;;;;;4.27;1.27;;;4.40;97.10;;;;;;5058457;28;20445;-82
2022/01/06 11:15:00;;;;;;;2.13;1.10;;;4.50;97.20;;;;;;5057107;28;20517;-81
2022/01/06 11:17:25;;;;;;;2.07;1.83;;;4.60;97.00;;;;;;5058309;28;20454;-82
2022/01/06 11:19:51;;;;;;;3.10;1.73;;;4.60;96.90;;;;;;5059163;28;20493;-82
2022/01/06 11:22:24;;;;;;;1.73;1.47;;;4.40;97.30;;;;;;5059039;28;20196;-82
2022/01/06 11:24:54;;;;;;;6.70;2.07;;;4.20;97.30;;;;;;5062430;28;20493;-80
2022/01/06 11:27:36;;;;;;;2.73;1.70;;;4.00;97.30;;;;;;5060984;28;20445;-81
2022/01/06 11:30:16;;;;;;;3.23;1.60;;;3.90;97.30;;;;;;5063221;28;20399;-82
2022/01/06 11:32:42;;;;;;;2.90;1.53;;;3.90;97.30;;;;;;5060193;28;20422;-81
2022/01/06 11:35:11;;;;;;;2.33;1.27;;;4.00;97.30;;;;;;5062075;28;20422;-81
2022/01/06 11:37:43;;;;;;;5.20;1.70;;;4.00;97.30;;;;;;5058893;28;20880;-82
2022/01/06 11:40:10;;;;;;;2.63;2.30;;;4.30;97.30;;;;;;5060439;28;20413;-82
2022/01/06 11:42:35;;;;;;;4.70;1.70;;;4.40;97.30;;;;;;5059849;28;20484;-82
2022/01/06 11:45:05;;;;;;;7.10;2.00;;;4.40;97.30;;;;;;5060179;28;20410;-82
2022/01/06 11:47:33;;;;;;;11.57;1.87;;;4.50;96.60;;;;;;5057988;28;20190;-84
2022/01/06 11:50:25;;;;;;;3.63;1.70;;;4.80;96.20;;;;;;5058172;28;20871;-83
2022/01/06 11:52:52;;;;;;;3.10;1.80;;;4.80;96.30;;;;;;5056030;28;20418;-82
2022/01/06 11:55:19;;;;;;;4.40;1.57;;;4.70;96.00;;;;;;5057629;28;20442;-82
2022/01/06 11:57:45;;;;;;;3.70;1.40;;;4.50;96.10;;;;;;5057853;28;20794;-83
2022/01/06 12:00:17;;;;;;;5.53;1.70;;;4.30;97.20;;;;;;5059948;28;20422;-82
2022/01/06 12:02:43;;;;;;;1.93;1.70;;;4.10;96.90;;;;;;5057061;28;20419;-81
2022/01/06 12:05:09;;;;;;;2.50;1.60;;;4.00;97.30;;;;;;5058703;28;20791;-82
2022/01/06 12:07:35;;;;;;;4.27;1.67;;;3.90;97.30;;;;;;5057213;28;20421;-82
2022/01/06 12:10:06;;;;;;;5.83;2.00;;;4.00;97.30;;;;;;5059433;28;20448;-81
2022/01/06 12:12:34;;;;;;;1.57;1.50;;;3.90;97.30;;;;;;5058616;28;20207;-82
2022/01/06 12:15:14;;;;;;;5.40;1.90;;;3.80;97.30;;;;;;5058569;28;20481;-82
2022/01/06 12:17:54;;;;;;;2.53;1.60;;;3.80;97.30;;;;;;5059527;28;20466;-82
2022/01/06 12:20:25;;;;;;;2.30;1.53;;;3.80;97.30;;;;;;5061315;28;20398;-83
2022/01/06 12:22:51;;;;;;;7.93;2.20;;;3.80;97.30;;;;;;5058935;28;20821;-81
2022/01/06 12:25:22;;;;;;;3.00;1.53;;;4.00;97.30;;;;;;5056953;28;20410;-82
2022/01/06 12:27:52;;;;;;;2.07;1.27;;;4.00;97.30;;;;;;5057669;28;20183;-81
2022/01/06 12:30:19;;;;;;;2.93;1.57;;;4.20;97.30;;;;;;5058263;28;20501;-84
2022/01/06 12:33:06;;;;;;;5.87;2.03;;;4.50;96.60;;;;;;5057164;28;20513;-82
2022/01/06 12:35:47;;;;;;;1.83;1.47;;;5.00;95.40;;;;;;5057428;28;20525;-82
2022/01/06 12:38:13;;;;;;;3.70;1.47;;;5.50;94.50;;;;;;5056524;28;20454;-83
2022/01/06 12:40:44;;;;;;;2.80;1.60;;;5.80;93.80;;;;;;5056191;28;20951;-83
2022/01/06 12:43:15;;;;;;;1.57;1.20;;;6.20;93.50;;;;;;5056654;28;20484;-82
2022/01/06 12:45:41;;;;;;;1.47;1.30;;;6.50;92.50;;;;;;5058776;28;20425;-82
2022/01/06 12:48:06;;;;;;;5.37;1.40;;;6.70;90.80;;;;;;5060416;28;20524;-83
2022/01/06 12:50:47;;;;;;;1.37;1.23;;;6.70;90.60;;;;;;5061256;28;20258;-83
2022/01/06 12:53:25;;;;;;;3.80;2.40;;;6.80;89.90;;;;;;5064938;28;20190;-82
2022/01/06 12:55:50;;;;;;;5.00;2.60;;;6.70;90.00;;;;;;5059740;28;20513;-82
2022/01/06 12:58:31;;;;;;;2.10;1.27;;;6.80;90.20;;;;;;5061355;28;20461;-82
2022/01/06 13:01:02;;;;;;;3.63;1.20;;;6.90;89.70;;;;;;5060405;28;20214;-82
2022/01/06 13:03:30;;;;;;;4.73;1.53;;;7.10;88.30;;;;;;5062763;28;20487;-81